This is the latest recevied weather packets stored in our database for station/object SV1JCZ-13. If no packets are shown the sender has not sent any weather packets the latest 10 day(s).
| Time | Temp. | Humidity | Pressure | Rain* | Wind** | Luminosity | Snow |
|---|---|---|---|---|---|---|---|
| 1777425679 | 12.78° C | 73% | 0 hPa | 0 mm | - | - | - |
| 1777414879 | 14.44° C | 70% | 0 hPa | 0 mm | - | - | - |
| 1777410559 | 15° C | 70% | 0 hPa | 0 mm | - | - | - |
| 1777408039 | 15.56° C | 68% | 0 hPa | 0 mm | - | - | - |
| 1777407679 | 15.56° C | 68% | 0 hPa | 0 mm | - | - | - |
| 1777407319 | 15.56° C | 67% | 0 hPa | 0 mm | - | - | - |
| 1777406959 | 15.56° C | 67% | 0 hPa | 0 mm | - | - | - |
| 1777404079 | 16.67° C | 65% | 0 hPa | 0 mm | - | - | - |
| 1777401920 | 16.67° C | 64% | 0 hPa | 0 mm | - | - | - |
| 1777401200 | 17.22° C | 63% | 0 hPa | 0 mm | - | - | - |
| 1777400480 | 17.78° C | 62% | 0 hPa | 0 mm | - | - | - |
| 1777399760 | 17.78° C | 61% | 0 hPa | 0 mm | - | - | - |
| 1777398844 | 18.33° C | 60% | 0 hPa | 0 mm | - | - | - |
| 1777395964 | 20.56° C | 56% | 0 hPa | 0 mm | - | - | - |
| 1777395604 | 20.56° C | 55% | 0 hPa | 0 mm | - | - | - |
| 1777394884 | 21.67° C | 52% | 0 hPa | 0 mm | - | - | - |
| 1777394287 | 23.33° C | 47% | 0 hPa | 0 mm | - | - | - |
| 1777394164 | 23.89° C | 45% | 0 hPa | 0 mm | - | - | - |
| 1777393804 | 25° C | 42% | 0 hPa | 0 mm | - | - | - |
| 1777393444 | 25.56° C | 40% | 0 hPa | 0 mm | - | - | - |
| 1777393084 | 26.11° C | 40% | 0 hPa | 0 mm | - | - | - |
| 1777392004 | 26.11° C | 39% | 0 hPa | 0 mm | - | - | - |
| 1777391644 | 26.67° C | 37% | 0 hPa | 0 mm | - | - | - |
| 1777390564 | 26.67° C | 39% | 0 hPa | 0 mm | - | - | - |
| 1777389484 | 26.67° C | 38% | 0 hPa | 0 mm | - | - | - |
* Rain latest hour (hover to see other rain measurements)
** Current wind speed in m/s (hover to see current wind gust speed)